Aérodrome :
LOGIN :

S'inscrire | Disclaimer

   EN    FR    IT 

 










Légende :    VFR   VFR Marginal   IFR   IFR Intensif   IFR Très Intensif
Visi : 
Plafond : 
>= 8 km
>= 3000ft
5 à 8 km
1000 à 3000 ft
1500m à 5 km
500 à 1000 ft
800 à 1500m
200 à 500 ft
< 800m
< 200 ft
Symboles :   Orages  Brouillard  Fortes neiges  Fortes précipitations  Vent > 20 kt
SIGMETs :   Divers  Orages  Givrage  Turbulence  Onde Orograph.  Cendres Volcan.






- Altitude de l'aérodrome : 302 ft
- Code IATA : CGN


EDDK - Cologne Bonn

DERNIER METAR :
  • 300320Z VRB02KT CAVOK M06/M07 Q1027 NOSIG

METARs EXPIRÉS :
  • 300250Z 14001KT CAVOK M05/M06 Q1027 NOSIG
  • 300220Z 13001KT CAVOK M05/M06 Q1027 NOSIG
  • 300150Z 14004KT CAVOK M05/M06 Q1027 NOSIG
  • 300120Z VRB02KT CAVOK M05/M06 Q1027 NOSIG
  • 300050Z 05003KT CAVOK M04/M06 Q1027 NOSIG

TAF TAF EDDK
Valide du 30 à 00h jusqu'au 01 à 06h UTC


292300Z 3000/0106 15005KT CAVOK
PROB30
TEMPO 3005/3010 4000 BR BKN008
TEMPO 3018/0103 4000 RA BKN013
BECMG 3023/0102 28007KT
TEMPO 0103/0106 BKN008



MET'MAP, la Météo Aéronautique d'un coup d'oeil ! - Copyright ORBIFLY Décembre 2007 - Disclaimer

ORBIFLY MET'MAP TEAM :

Programmation & Développement : Alexandra Zaïnal
Sur une idée originale de : Baudouin d'Aumeries
Assistance à la programmation : Marc-Olivier Méhu
Soutien technique & logistique : Manuel Goepfert

Contact : metmap@orbifly.com




SOURCES & CREDITS :

   NOAA